sensor_id;sensor_type;location;lat;lon;timestamp;temperature;humidity
64654;DHT22;51065;48.884;12.598;2023-01-01T00:02:12;5.20;99.90
64654;DHT22;51065;48.884;12.598;2023-01-01T00:04:38;5.20;99.90
64654;DHT22;51065;48.884;12.598;2023-01-01T00:07:03;5.20;99.90
64654;DHT22;51065;48.884;12.598;2023-01-01T00:09:29;5.10;99.90
64654;DHT22;51065;48.884;12.598;2023-01-01T00:12:13;5.10;99.90
64654;DHT22;51065;48.884;12.598;2023-01-01T00:14:39;5.10;99.90
64654;DHT22;51065;48.884;12.598;2023-01-01T00:17:07;5.10;99.90
64654;DHT22;51065;48.884;12.598;2023-01-01T00:19:32;5.00;99.90
64654;DHT22;51065;48.884;12.598;2023-01-01T00:21:58;5.00;99.90
64654;DHT22;51065;48.884;12.598;2023-01-01T00:24:23;5.00;99.90
64654;DHT22;51065;48.884;12.598;2023-01-01T00:26:49;5.00;99.90
64654;DHT22;51065;48.884;12.598;2023-01-01T00:29:14;4.90;99.90
64654;DHT22;51065;48.884;12.598;2023-01-01T00:31:40;4.80;99.90
64654;DHT22;51065;48.884;12.598;2023-01-01T00:34:06;4.70;99.90
64654;DHT22;51065;48.884;12.598;2023-01-01T00:36:31;4.70;99.90
64654;DHT22;51065;48.884;12.598;2023-01-01T00:38:57;4.70;99.90
64654;DHT22;51065;48.884;12.598;2023-01-01T00:41:23;4.80;99.90
64654;DHT22;51065;48.884;12.598;2023-01-01T00:43:48;4.80;99.90
64654;DHT22;51065;48.884;12.598;2023-01-01T00:46:14;4.90;99.90
64654;DHT22;51065;48.884;12.598;2023-01-01T00:48:40;5.00;99.90
64654;DHT22;51065;48.884;12.598;2023-01-01T00:51:05;5.10;99.90
64654;DHT22;51065;48.884;12.598;2023-01-01T00:53:31;5.10;99.90
64654;DHT22;51065;48.884;12.598;2023-01-01T00:55:57;5.20;99.90
64654;DHT22;51065;48.884;12.598;2023-01-01T00:58:24;5.10;99.90
64654;DHT22;51065;48.884;12.598;2023-01-01T01:00:51;5.10;99.90
64654;DHT22;51065;48.884;12.598;2023-01-01T01:03:17;5.00;99.90
64654;DHT22;51065;48.884;12.598;2023-01-01T01:06:06;4.80;99.90
64654;DHT22;51065;48.884;12.598;2023-01-01T01:08:37;4.80;99.90
64654;DHT22;51065;48.884;12.598;2023-01-01T01:11:17;4.80;99.90
64654;DHT22;51065;48.884;12.598;2023-01-01T01:13:45;4.70;99.90
64654;DHT22;51065;48.884;12.598;2023-01-01T01:16:14;4.80;99.90
64654;DHT22;51065;48.884;12.598;2023-01-01T01:18:40;4.90;99.90
64654;DHT22;51065;48.884;12.598;2023-01-01T01:21:06;4.90;99.90
64654;DHT22;51065;48.884;12.598;2023-01-01T01:23:32;4.90;99.90
64654;DHT22;51065;48.884;12.598;2023-01-01T01:26:07;4.90;99.90
64654;DHT22;51065;48.884;12.598;2023-01-01T01:28:33;5.00;99.90
64654;DHT22;51065;48.884;12.598;2023-01-01T01:30:59;5.00;99.90
64654;DHT22;51065;48.884;12.598;2023-01-01T01:33:25;4.90;99.90
64654;DHT22;51065;48.884;12.598;2023-01-01T01:35:50;5.00;99.90
64654;DHT22;51065;48.884;12.598;2023-01-01T01:38:16;5.10;99.90
64654;DHT22;51065;48.884;12.598;2023-01-01T01:40:42;5.10;99.90
64654;DHT22;51065;48.884;12.598;2023-01-01T01:46:24;5.00;99.90
64654;DHT22;51065;48.884;12.598;2023-01-01T01:48:51;5.00;99.90
64654;DHT22;51065;48.884;12.598;2023-01-01T01:51:23;5.10;99.90
64654;DHT22;51065;48.884;12.598;2023-01-01T01:53:55;5.10;99.90
64654;DHT22;51065;48.884;12.598;2023-01-01T01:56:28;5.20;99.90
64654;DHT22;51065;48.884;12.598;2023-01-01T01:58:56;5.20;99.90
64654;DHT22;51065;48.884;12.598;2023-01-01T02:01:23;5.20;99.90
64654;DHT22;51065;48.884;12.598;2023-01-01T02:03:58;5.30;99.90
64654;DHT22;51065;48.884;12.598;2023-01-01T02:06:26;5.40;99.90
64654;DHT22;51065;48.884;12.598;2023-01-01T02:08:55;5.30;99.90
64654;DHT22;51065;48.884;12.598;2023-01-01T02:11:21;5.20;99.90
64654;DHT22;51065;48.884;12.598;2023-01-01T02:13:47;5.10;99.90
64654;DHT22;51065;48.884;12.598;2023-01-01T02:16:38;5.00;99.90
64654;DHT22;51065;48.884;12.598;2023-01-01T02:19:19;5.00;99.90
64654;DHT22;51065;48.884;12.598;2023-01-01T02:22:22;5.10;99.90
64654;DHT22;51065;48.884;12.598;2023-01-01T02:30:24;5.40;99.90
64654;DHT22;51065;48.884;12.598;2023-01-01T02:33:04;5.40;99.90
64654;DHT22;51065;48.884;12.598;2023-01-01T02:35:36;5.40;99.90
64654;DHT22;51065;48.884;12.598;2023-01-01T02:38:26;5.40;99.90
64654;DHT22;51065;48.884;12.598;2023-01-01T02:41:04;5.30;99.90
64654;DHT22;51065;48.884;12.598;2023-01-01T02:43:31;5.20;99.90
64654;DHT22;51065;48.884;12.598;2023-01-01T02:45:56;5.20;99.90
64654;DHT22;51065;48.884;12.598;2023-01-01T02:51:41;5.20;99.90
64654;DHT22;51065;48.884;12.598;2023-01-01T02:56:57;5.20;99.90
64654;DHT22;51065;48.884;12.598;2023-01-01T02:59:32;5.10;99.90
64654;DHT22;51065;48.884;12.598;2023-01-01T03:08:30;5.40;99.90
64654;DHT22;51065;48.884;12.598;2023-01-01T03:11:04;5.40;99.90
64654;DHT22;51065;48.884;12.598;2023-01-01T03:16:33;5.40;99.90
64654;DHT22;51065;48.884;12.598;2023-01-01T03:19:06;5.40;99.90
64654;DHT22;51065;48.884;12.598;2023-01-01T03:21:49;5.40;99.90
64654;DHT22;51065;48.884;12.598;2023-01-01T03:27:30;5.40;99.90
64654;DHT22;51065;48.884;12.598;2023-01-01T03:29:56;5.40;99.90
64654;DHT22;51065;48.884;12.598;2023-01-01T03:32:28;5.40;99.90
64654;DHT22;51065;48.884;12.598;2023-01-01T03:35:17;5.30;99.90
64654;DHT22;51065;48.884;12.598;2023-01-01T03:37:46;5.20;99.90
64654;DHT22;51065;48.884;12.598;2023-01-01T03:40:16;5.20;99.90
64654;DHT22;51065;48.884;12.598;2023-01-01T03:42:49;5.20;99.90
64654;DHT22;51065;48.884;12.598;2023-01-01T03:45:16;5.20;99.90
64654;DHT22;51065;48.884;12.598;2023-01-01T03:47:43;5.30;99.90
64654;DHT22;51065;48.884;12.598;2023-01-01T03:50:09;5.30;99.90
64654;DHT22;51065;48.884;12.598;2023-01-01T03:55:59;5.20;99.90
64654;DHT22;51065;48.884;12.598;2023-01-01T03:58:52;5.20;99.90
64654;DHT22;51065;48.884;12.598;2023-01-01T04:01:31;5.10;99.90
64654;DHT22;51065;48.884;12.598;2023-01-01T04:03:59;5.10;99.90
64654;DHT22;51065;48.884;12.598;2023-01-01T04:06:25;5.20;99.90
64654;DHT22;51065;48.884;12.598;2023-01-01T04:08:54;5.10;99.90
64654;DHT22;51065;48.884;12.598;2023-01-01T04:11:27;5.10;99.90
64654;DHT22;51065;48.884;12.598;2023-01-01T04:14:13;5.10;99.90
64654;DHT22;51065;48.884;12.598;2023-01-01T04:16:38;5.20;99.90
64654;DHT22;51065;48.884;12.598;2023-01-01T04:19:04;5.10;99.90
64654;DHT22;51065;48.884;12.598;2023-01-01T04:21:32;5.10;99.90
64654;DHT22;51065;48.884;12.598;2023-01-01T04:23:58;5.10;99.90
64654;DHT22;51065;48.884;12.598;2023-01-01T04:26:23;5.10;99.90
64654;DHT22;51065;48.884;12.598;2023-01-01T04:28:49;5.10;99.90
64654;DHT22;51065;48.884;12.598;2023-01-01T04:31:15;5.10;99.90
64654;DHT22;51065;48.884;12.598;2023-01-01T04:33:40;5.10;99.90
64654;DHT22;51065;48.884;12.598;2023-01-01T04:36:08;5.10;99.90
64654;DHT22;51065;48.884;12.598;2023-01-01T04:38:35;5.10;99.90
64654;DHT22;51065;48.884;12.598;2023-01-01T04:41:02;5.10;99.90
64654;DHT22;51065;48.884;12.598;2023-01-01T04:43:28;5.00;99.90
64654;DHT22;51065;48.884;12.598;2023-01-01T04:45:59;5.00;99.90
64654;DHT22;51065;48.884;12.598;2023-01-01T04:48:26;4.90;99.90
64654;DHT22;51065;48.884;12.598;2023-01-01T04:51:03;4.90;99.90
64654;DHT22;51065;48.884;12.598;2023-01-01T04:53:32;4.80;99.90
64654;DHT22;51065;48.884;12.598;2023-01-01T04:56:03;4.70;99.90
64654;DHT22;51065;48.884;12.598;2023-01-01T04:58:30;4.70;99.90
64654;DHT22;51065;48.884;12.598;2023-01-01T05:00:55;4.60;99.90
64654;DHT22;51065;48.884;12.598;2023-01-01T05:03:21;4.60;99.90
64654;DHT22;51065;48.884;12.598;2023-01-01T05:05:46;4.50;99.90
64654;DHT22;51065;48.884;12.598;2023-01-01T05:08:14;4.50;99.90
64654;DHT22;51065;48.884;12.598;2023-01-01T05:10:39;4.50;99.90
64654;DHT22;51065;48.884;12.598;2023-01-01T05:13:06;4.60;99.90
64654;DHT22;51065;48.884;12.598;2023-01-01T05:15:35;4.70;99.90
64654;DHT22;51065;48.884;12.598;2023-01-01T05:18:01;4.80;99.90
64654;DHT22;51065;48.884;12.598;2023-01-01T05:20:26;4.80;99.90
64654;DHT22;51065;48.884;12.598;2023-01-01T05:22:52;4.80;99.90
64654;DHT22;51065;48.884;12.598;2023-01-01T05:25:17;4.70;99.90
64654;DHT22;51065;48.884;12.598;2023-01-01T05:27:43;4.70;99.90
64654;DHT22;51065;48.884;12.598;2023-01-01T05:30:09;4.70;99.90
64654;DHT22;51065;48.884;12.598;2023-01-01T05:32:36;4.70;99.90
64654;DHT22;51065;48.884;12.598;2023-01-01T05:35:02;4.70;99.90
64654;DHT22;51065;48.884;12.598;2023-01-01T05:37:28;4.70;99.90
64654;DHT22;51065;48.884;12.598;2023-01-01T05:39:53;4.60;99.90
64654;DHT22;51065;48.884;12.598;2023-01-01T05:42:19;4.60;99.90
64654;DHT22;51065;48.884;12.598;2023-01-01T05:44:44;4.60;99.90
64654;DHT22;51065;48.884;12.598;2023-01-01T05:47:10;4.60;99.90
64654;DHT22;51065;48.884;12.598;2023-01-01T05:49:36;4.60;99.90
64654;DHT22;51065;48.884;12.598;2023-01-01T05:52:02;4.50;99.90
64654;DHT22;51065;48.884;12.598;2023-01-01T05:54:28;4.40;99.90
64654;DHT22;51065;48.884;12.598;2023-01-01T05:56:53;4.40;99.90
64654;DHT22;51065;48.884;12.598;2023-01-01T05:59:19;4.40;99.90
64654;DHT22;51065;48.884;12.598;2023-01-01T06:01:44;4.30;99.90
64654;DHT22;51065;48.884;12.598;2023-01-01T06:04:10;4.40;99.90
64654;DHT22;51065;48.884;12.598;2023-01-01T06:06:35;4.40;99.90
64654;DHT22;51065;48.884;12.598;2023-01-01T06:09:03;4.40;99.90
64654;DHT22;51065;48.884;12.598;2023-01-01T06:11:30;4.50;99.90
64654;DHT22;51065;48.884;12.598;2023-01-01T06:13:58;4.50;99.90
64654;DHT22;51065;48.884;12.598;2023-01-01T06:16:25;4.40;99.90
64654;DHT22;51065;48.884;12.598;2023-01-01T06:18:51;4.30;99.90
64654;DHT22;51065;48.884;12.598;2023-01-01T06:21:19;4.20;99.90
64654;DHT22;51065;48.884;12.598;2023-01-01T06:23:45;4.10;99.90
64654;DHT22;51065;48.884;12.598;2023-01-01T06:26:17;4.00;99.90
64654;DHT22;51065;48.884;12.598;2023-01-01T06:28:43;4.00;99.90
64654;DHT22;51065;48.884;12.598;2023-01-01T06:31:10;3.80;99.90
64654;DHT22;51065;48.884;12.598;2023-01-01T06:33:37;3.80;99.90
64654;DHT22;51065;48.884;12.598;2023-01-01T06:36:05;3.80;99.90
64654;DHT22;51065;48.884;12.598;2023-01-01T06:38:32;3.80;99.90
64654;DHT22;51065;48.884;12.598;2023-01-01T06:41:00;3.90;99.90
64654;DHT22;51065;48.884;12.598;2023-01-01T06:43:26;4.00;99.90
64654;DHT22;51065;48.884;12.598;2023-01-01T06:46:14;3.90;99.90
64654;DHT22;51065;48.884;12.598;2023-01-01T06:48:40;3.90;99.90
64654;DHT22;51065;48.884;12.598;2023-01-01T06:51:13;3.80;99.90
64654;DHT22;51065;48.884;12.598;2023-01-01T06:53:39;3.70;99.90
64654;DHT22;51065;48.884;12.598;2023-01-01T06:56:06;3.60;99.90
64654;DHT22;51065;48.884;12.598;2023-01-01T06:58:32;3.70;99.90
64654;DHT22;51065;48.884;12.598;2023-01-01T07:01:15;3.70;99.90
64654;DHT22;51065;48.884;12.598;2023-01-01T07:03:41;3.70;99.90
64654;DHT22;51065;48.884;12.598;2023-01-01T07:06:08;3.60;99.90
64654;DHT22;51065;48.884;12.598;2023-01-01T07:08:34;3.60;99.90
64654;DHT22;51065;48.884;12.598;2023-01-01T07:11:00;3.60;99.90
64654;DHT22;51065;48.884;12.598;2023-01-01T07:13:27;3.50;99.90
64654;DHT22;51065;48.884;12.598;2023-01-01T07:15:53;3.50;99.90
64654;DHT22;51065;48.884;12.598;2023-01-01T07:18:20;3.50;99.90
64654;DHT22;51065;48.884;12.598;2023-01-01T07:20:57;3.60;99.90
64654;DHT22;51065;48.884;12.598;2023-01-01T07:23:25;3.60;99.90
64654;DHT22;51065;48.884;12.598;2023-01-01T07:25:51;3.60;99.90
64654;DHT22;51065;48.884;12.598;2023-01-01T07:28:18;3.60;99.90
64654;DHT22;51065;48.884;12.598;2023-01-01T07:30:43;3.70;99.90
64654;DHT22;51065;48.884;12.598;2023-01-01T07:33:11;3.70;99.90
64654;DHT22;51065;48.884;12.598;2023-01-01T07:35:37;3.80;99.90
64654;DHT22;51065;48.884;12.598;2023-01-01T07:38:03;3.80;99.90
64654;DHT22;51065;48.884;12.598;2023-01-01T07:40:28;3.80;99.90
64654;DHT22;51065;48.884;12.598;2023-01-01T07:42:54;3.90;99.90
64654;DHT22;51065;48.884;12.598;2023-01-01T07:45:19;3.90;99.90
64654;DHT22;51065;48.884;12.598;2023-01-01T07:47:50;4.00;99.90
64654;DHT22;51065;48.884;12.598;2023-01-01T07:50:18;4.10;99.90
64654;DHT22;51065;48.884;12.598;2023-01-01T07:52:43;4.30;99.90
64654;DHT22;51065;48.884;12.598;2023-01-01T07:55:14;4.70;99.90
64654;DHT22;51065;48.884;12.598;2023-01-01T07:57:40;5.00;99.90
64654;DHT22;51065;48.884;12.598;2023-01-01T08:00:07;5.30;99.90
64654;DHT22;51065;48.884;12.598;2023-01-01T08:02:33;5.40;99.90
64654;DHT22;51065;48.884;12.598;2023-01-01T08:04:59;5.40;99.90
64654;DHT22;51065;48.884;12.598;2023-01-01T08:07:24;5.60;99.90
64654;DHT22;51065;48.884;12.598;2023-01-01T08:09:50;6.10;99.90
64654;DHT22;51065;48.884;12.598;2023-01-01T08:12:15;6.60;99.90
64654;DHT22;51065;48.884;12.598;2023-01-01T08:14:41;7.10;99.90
64654;DHT22;51065;48.884;12.598;2023-01-01T08:17:06;7.40;99.90
64654;DHT22;51065;48.884;12.598;2023-01-01T08:19:32;7.50;99.90
64654;DHT22;51065;48.884;12.598;2023-01-01T08:21:57;7.30;99.90
64654;DHT22;51065;48.884;12.598;2023-01-01T08:24:23;7.40;99.90
64654;DHT22;51065;48.884;12.598;2023-01-01T08:26:49;7.70;99.90
64654;DHT22;51065;48.884;12.598;2023-01-01T08:29:16;7.80;99.90
64654;DHT22;51065;48.884;12.598;2023-01-01T08:31:42;7.90;99.90
64654;DHT22;51065;48.884;12.598;2023-01-01T08:34:07;7.80;99.90
64654;DHT22;51065;48.884;12.598;2023-01-01T08:36:33;7.90;99.90
64654;DHT22;51065;48.884;12.598;2023-01-01T08:38:59;8.30;99.90
64654;DHT22;51065;48.884;12.598;2023-01-01T08:41:25;8.50;99.90
64654;DHT22;51065;48.884;12.598;2023-01-01T08:43:50;8.60;99.90
64654;DHT22;51065;48.884;12.598;2023-01-01T08:46:16;8.90;99.90
64654;DHT22;51065;48.884;12.598;2023-01-01T08:48:42;8.90;99.90
64654;DHT22;51065;48.884;12.598;2023-01-01T08:51:08;8.90;99.90
64654;DHT22;51065;48.884;12.598;2023-01-01T08:53:34;9.00;99.90
64654;DHT22;51065;48.884;12.598;2023-01-01T08:56:06;9.00;99.90
64654;DHT22;51065;48.884;12.598;2023-01-01T08:58:33;8.90;99.90
64654;DHT22;51065;48.884;12.598;2023-01-01T09:01:00;8.70;99.90
64654;DHT22;51065;48.884;12.598;2023-01-01T09:03:26;8.60;99.90
64654;DHT22;51065;48.884;12.598;2023-01-01T09:05:52;8.60;99.90
64654;DHT22;51065;48.884;12.598;2023-01-01T09:08:18;8.90;99.90
64654;DHT22;51065;48.884;12.598;2023-01-01T09:10:44;9.30;99.90
64654;DHT22;51065;48.884;12.598;2023-01-01T09:13:11;9.70;99.90
64654;DHT22;51065;48.884;12.598;2023-01-01T09:15:38;10.50;99.90
64654;DHT22;51065;48.884;12.598;2023-01-01T09:18:04;10.80;99.90
64654;DHT22;51065;48.884;12.598;2023-01-01T09:20:30;10.70;99.90
64654;DHT22;51065;48.884;12.598;2023-01-01T09:22:55;10.70;99.90
64654;DHT22;51065;48.884;12.598;2023-01-01T09:25:21;10.80;99.90
64654;DHT22;51065;48.884;12.598;2023-01-01T09:27:46;10.90;99.90
64654;DHT22;51065;48.884;12.598;2023-01-01T09:30:12;10.90;99.90
64654;DHT22;51065;48.884;12.598;2023-01-01T09:32:38;10.80;99.90
64654;DHT22;51065;48.884;12.598;2023-01-01T09:35:04;10.90;99.90
64654;DHT22;51065;48.884;12.598;2023-01-01T09:37:30;11.20;99.90
64654;DHT22;51065;48.884;12.598;2023-01-01T09:39:55;11.40;99.90
64654;DHT22;51065;48.884;12.598;2023-01-01T09:42:44;11.40;99.90
64654;DHT22;51065;48.884;12.598;2023-01-01T09:45:22;11.30;99.90
64654;DHT22;51065;48.884;12.598;2023-01-01T09:48:15;11.20;99.90
64654;DHT22;51065;48.884;12.598;2023-01-01T09:50:43;10.60;99.90
64654;DHT22;51065;48.884;12.598;2023-01-01T09:53:17;10.00;99.90
64654;DHT22;51065;48.884;12.598;2023-01-01T09:55:56;9.60;99.90
64654;DHT22;51065;48.884;12.598;2023-01-01T09:58:34;9.20;99.90
64654;DHT22;51065;48.884;12.598;2023-01-01T10:06:57;9.00;99.90
64654;DHT22;51065;48.884;12.598;2023-01-01T10:09:40;9.10;99.90
64654;DHT22;51065;48.884;12.598;2023-01-01T10:14:35;9.20;99.90
64654;DHT22;51065;48.884;12.598;2023-01-01T10:17:11;9.30;99.90
64654;DHT22;51065;48.884;12.598;2023-01-01T10:19:49;9.40;99.90
64654;DHT22;51065;48.884;12.598;2023-01-01T10:22:34;9.40;99.90
64654;DHT22;51065;48.884;12.598;2023-01-01T10:25:02;9.40;99.90
64654;DHT22;51065;48.884;12.598;2023-01-01T10:27:34;9.40;99.90
64654;DHT22;51065;48.884;12.598;2023-01-01T10:30:02;9.40;99.90
64654;DHT22;51065;48.884;12.598;2023-01-01T10:32:34;9.50;99.90
64654;DHT22;51065;48.884;12.598;2023-01-01T10:35:02;9.50;99.90
64654;DHT22;51065;48.884;12.598;2023-01-01T10:37:32;9.60;99.90
64654;DHT22;51065;48.884;12.598;2023-01-01T10:40:04;9.60;99.90
64654;DHT22;51065;48.884;12.598;2023-01-01T10:42:30;9.70;99.90
64654;DHT22;51065;48.884;12.598;2023-01-01T10:44:56;9.70;99.90
64654;DHT22;51065;48.884;12.598;2023-01-01T10:47:28;9.70;99.90
64654;DHT22;51065;48.884;12.598;2023-01-01T10:50:03;9.70;99.90
64654;DHT22;51065;48.884;12.598;2023-01-01T10:52:37;9.80;99.90
64654;DHT22;51065;48.884;12.598;2023-01-01T10:55:20;9.80;99.90
64654;DHT22;51065;48.884;12.598;2023-01-01T10:57:46;9.80;99.90
64654;DHT22;51065;48.884;12.598;2023-01-01T11:00:26;9.90;99.90
64654;DHT22;51065;48.884;12.598;2023-01-01T11:05:36;10.00;99.90
64654;DHT22;51065;48.884;12.598;2023-01-01T11:08:02;10.10;99.90
64654;DHT22;51065;48.884;12.598;2023-01-01T11:10:28;10.20;99.90
64654;DHT22;51065;48.884;12.598;2023-01-01T11:12:55;10.20;99.90
64654;DHT22;51065;48.884;12.598;2023-01-01T11:15:35;10.20;99.90
64654;DHT22;51065;48.884;12.598;2023-01-01T11:18:06;10.30;99.90
64654;DHT22;51065;48.884;12.598;2023-01-01T11:20:36;10.40;99.90
64654;DHT22;51065;48.884;12.598;2023-01-01T11:25:57;10.50;99.90
64654;DHT22;51065;48.884;12.598;2023-01-01T11:28:23;10.60;99.90
64654;DHT22;51065;48.884;12.598;2023-01-01T11:31:13;10.70;99.90
64654;DHT22;51065;48.884;12.598;2023-01-01T11:33:51;10.90;99.90
64654;DHT22;51065;48.884;12.598;2023-01-01T11:36:23;10.90;99.90
64654;DHT22;51065;48.884;12.598;2023-01-01T11:41:43;10.90;99.90
64654;DHT22;51065;48.884;12.598;2023-01-01T11:44:11;10.90;99.90
64654;DHT22;51065;48.884;12.598;2023-01-01T11:46:38;11.00;99.90
64654;DHT22;51065;48.884;12.598;2023-01-01T11:49:12;11.20;99.90
64654;DHT22;51065;48.884;12.598;2023-01-01T11:51:39;11.40;99.90
64654;DHT22;51065;48.884;12.598;2023-01-01T11:56:57;13.00;99.90
64654;DHT22;51065;48.884;12.598;2023-01-01T11:59:28;13.60;99.90
64654;DHT22;51065;48.884;12.598;2023-01-01T12:01:58;13.90;99.90
64654;DHT22;51065;48.884;12.598;2023-01-01T12:04:30;14.10;99.90
64654;DHT22;51065;48.884;12.598;2023-01-01T12:07:06;14.40;99.90
64654;DHT22;51065;48.884;12.598;2023-01-01T12:09:53;14.50;99.90
64654;DHT22;51065;48.884;12.598;2023-01-01T12:12:37;14.80;99.90
64654;DHT22;51065;48.884;12.598;2023-01-01T12:20:58;15.50;99.80
64654;DHT22;51065;48.884;12.598;2023-01-01T12:23:24;15.30;98.60
64654;DHT22;51065;48.884;12.598;2023-01-01T12:26:16;14.90;99.90
64654;DHT22;51065;48.884;12.598;2023-01-01T12:32:14;15.90;99.10
64654;DHT22;51065;48.884;12.598;2023-01-01T12:43:22;15.30;99.90
64654;DHT22;51065;48.884;12.598;2023-01-01T12:46:04;14.60;99.90
64654;DHT22;51065;48.884;12.598;2023-01-01T12:55:06;13.90;99.90
64654;DHT22;51065;48.884;12.598;2023-01-01T12:57:45;14.40;99.90
64654;DHT22;51065;48.884;12.598;2023-01-01T13:00:16;15.20;99.90
64654;DHT22;51065;48.884;12.598;2023-01-01T13:03:05;15.60;99.50
64654;DHT22;51065;48.884;12.598;2023-01-01T13:05:44;16.00;95.50
64654;DHT22;51065;48.884;12.598;2023-01-01T13:08:10;15.50;96.50
64654;DHT22;51065;48.884;12.598;2023-01-01T13:10:41;14.60;99.90
64654;DHT22;51065;48.884;12.598;2023-01-01T13:13:09;13.80;99.90
64654;DHT22;51065;48.884;12.598;2023-01-01T13:18:06;12.60;99.90
64654;DHT22;51065;48.884;12.598;2023-01-01T13:20:35;12.30;99.90
64654;DHT22;51065;48.884;12.598;2023-01-01T13:23:03;12.00;99.90
64654;DHT22;51065;48.884;12.598;2023-01-01T13:25:29;11.90;99.90
64654;DHT22;51065;48.884;12.598;2023-01-01T13:38:50;11.50;99.90
64654;DHT22;51065;48.884;12.598;2023-01-01T13:50:02;11.40;99.90
64654;DHT22;51065;48.884;12.598;2023-01-01T13:58:07;11.40;99.90
64654;DHT22;51065;48.884;12.598;2023-01-01T14:03:45;11.30;99.90
64654;DHT22;51065;48.884;12.598;2023-01-01T14:06:20;11.30;99.90
64654;DHT22;51065;48.884;12.598;2023-01-01T14:09:08;11.30;99.90
64654;DHT22;51065;48.884;12.598;2023-01-01T14:11:35;11.20;99.90
64654;DHT22;51065;48.884;12.598;2023-01-01T14:14:01;11.20;99.90
64654;DHT22;51065;48.884;12.598;2023-01-01T14:16:27;11.20;99.90
64654;DHT22;51065;48.884;12.598;2023-01-01T14:18:58;11.20;99.90
64654;DHT22;51065;48.884;12.598;2023-01-01T14:21:30;11.20;99.90
64654;DHT22;51065;48.884;12.598;2023-01-01T14:23:59;11.10;99.90
64654;DHT22;51065;48.884;12.598;2023-01-01T14:26:26;11.10;99.90
64654;DHT22;51065;48.884;12.598;2023-01-01T14:29:00;11.00;99.90
64654;DHT22;51065;48.884;12.598;2023-01-01T14:31:29;11.00;99.90
64654;DHT22;51065;48.884;12.598;2023-01-01T14:33:56;11.00;99.90
64654;DHT22;51065;48.884;12.598;2023-01-01T14:36:24;11.00;99.90
64654;DHT22;51065;48.884;12.598;2023-01-01T14:38:52;11.10;99.90
64654;DHT22;51065;48.884;12.598;2023-01-01T14:41:29;11.00;99.90
64654;DHT22;51065;48.884;12.598;2023-01-01T14:44:08;10.90;99.90
64654;DHT22;51065;48.884;12.598;2023-01-01T14:46:39;10.80;99.90
64654;DHT22;51065;48.884;12.598;2023-01-01T14:49:09;10.70;99.90
64654;DHT22;51065;48.884;12.598;2023-01-01T14:51:44;10.60;99.90
64654;DHT22;51065;48.884;12.598;2023-01-01T14:54:18;10.40;99.90
64654;DHT22;51065;48.884;12.598;2023-01-01T14:56:49;10.30;99.90
64654;DHT22;51065;48.884;12.598;2023-01-01T14:59:26;10.20;99.90
64654;DHT22;51065;48.884;12.598;2023-01-01T15:02:16;10.00;99.90
64654;DHT22;51065;48.884;12.598;2023-01-01T15:04:42;9.90;99.90
64654;DHT22;51065;48.884;12.598;2023-01-01T15:10:14;9.80;99.90
64654;DHT22;51065;48.884;12.598;2023-01-01T15:12:39;9.80;99.90
64654;DHT22;51065;48.884;12.598;2023-01-01T15:17:58;9.70;99.90
64654;DHT22;51065;48.884;12.598;2023-01-01T15:20:24;9.70;99.90
64654;DHT22;51065;48.884;12.598;2023-01-01T15:22:50;9.60;99.90
64654;DHT22;51065;48.884;12.598;2023-01-01T15:25:17;9.60;99.90
64654;DHT22;51065;48.884;12.598;2023-01-01T15:27:48;9.50;99.90
64654;DHT22;51065;48.884;12.598;2023-01-01T15:30:37;9.40;99.90
64654;DHT22;51065;48.884;12.598;2023-01-01T15:33:08;9.30;99.90
64654;DHT22;51065;48.884;12.598;2023-01-01T15:35:34;9.10;99.90
64654;DHT22;51065;48.884;12.598;2023-01-01T15:38:11;9.10;99.90
64654;DHT22;51065;48.884;12.598;2023-01-01T15:40:38;9.00;99.90
64654;DHT22;51065;48.884;12.598;2023-01-01T15:45:54;8.80;99.90
64654;DHT22;51065;48.884;12.598;2023-01-01T15:48:29;8.70;99.90
64654;DHT22;51065;48.884;12.598;2023-01-01T15:51:01;8.60;99.90
64654;DHT22;51065;48.884;12.598;2023-01-01T15:53:30;8.40;99.90
64654;DHT22;51065;48.884;12.598;2023-01-01T15:56:04;8.30;99.90
64654;DHT22;51065;48.884;12.598;2023-01-01T15:58:35;8.10;99.90
64654;DHT22;51065;48.884;12.598;2023-01-01T16:01:04;7.90;99.90
64654;DHT22;51065;48.884;12.598;2023-01-01T16:03:32;7.70;99.90
64654;DHT22;51065;48.884;12.598;2023-01-01T16:05:58;7.40;99.90
64654;DHT22;51065;48.884;12.598;2023-01-01T16:08:25;7.10;99.90
64654;DHT22;51065;48.884;12.598;2023-01-01T16:10:51;7.00;99.90
64654;DHT22;51065;48.884;12.598;2023-01-01T16:13:17;6.90;99.90
64654;DHT22;51065;48.884;12.598;2023-01-01T16:15:54;6.80;99.90
64654;DHT22;51065;48.884;12.598;2023-01-01T16:18:25;6.80;99.90
64654;DHT22;51065;48.884;12.598;2023-01-01T16:20:53;6.70;99.90
64654;DHT22;51065;48.884;12.598;2023-01-01T16:23:19;6.70;99.90
64654;DHT22;51065;48.884;12.598;2023-01-01T16:25:45;6.60;99.90
64654;DHT22;51065;48.884;12.598;2023-01-01T16:28:10;6.50;99.90
64654;DHT22;51065;48.884;12.598;2023-01-01T16:30:36;6.40;99.90
64654;DHT22;51065;48.884;12.598;2023-01-01T16:33:02;6.30;99.90
64654;DHT22;51065;48.884;12.598;2023-01-01T16:35:28;6.40;99.90
64654;DHT22;51065;48.884;12.598;2023-01-01T16:37:54;6.40;99.90
64654;DHT22;51065;48.884;12.598;2023-01-01T16:40:19;6.50;99.90
64654;DHT22;51065;48.884;12.598;2023-01-01T16:42:45;6.70;99.90
64654;DHT22;51065;48.884;12.598;2023-01-01T16:45:15;6.80;99.90
64654;DHT22;51065;48.884;12.598;2023-01-01T16:47:42;6.90;99.90
64654;DHT22;51065;48.884;12.598;2023-01-01T16:50:08;7.00;99.90
64654;DHT22;51065;48.884;12.598;2023-01-01T16:52:34;7.00;99.90
64654;DHT22;51065;48.884;12.598;2023-01-01T16:54:59;6.90;99.90
64654;DHT22;51065;48.884;12.598;2023-01-01T16:57:25;6.80;99.90
64654;DHT22;51065;48.884;12.598;2023-01-01T16:59:50;6.70;99.90
64654;DHT22;51065;48.884;12.598;2023-01-01T17:02:16;6.70;99.90
64654;DHT22;51065;48.884;12.598;2023-01-01T17:04:41;6.60;99.90
64654;DHT22;51065;48.884;12.598;2023-01-01T17:07:07;6.60;99.90
64654;DHT22;51065;48.884;12.598;2023-01-01T17:09:33;6.50;99.90
64654;DHT22;51065;48.884;12.598;2023-01-01T17:11:58;6.50;99.90
64654;DHT22;51065;48.884;12.598;2023-01-01T17:14:24;6.40;99.90
64654;DHT22;51065;48.884;12.598;2023-01-01T17:16:49;6.40;99.90
64654;DHT22;51065;48.884;12.598;2023-01-01T17:19:17;6.30;99.90
64654;DHT22;51065;48.884;12.598;2023-01-01T17:21:44;6.20;99.90
64654;DHT22;51065;48.884;12.598;2023-01-01T17:24:09;6.20;99.90
64654;DHT22;51065;48.884;12.598;2023-01-01T17:26:35;6.30;99.90
64654;DHT22;51065;48.884;12.598;2023-01-01T17:29:01;6.30;99.90
64654;DHT22;51065;48.884;12.598;2023-01-01T17:31:27;6.20;99.90
64654;DHT22;51065;48.884;12.598;2023-01-01T17:33:53;6.30;99.90
64654;DHT22;51065;48.884;12.598;2023-01-01T17:36:19;6.30;99.90